createdAt,value
2023-03-04T00:00:17.348Z,3.83
2023-03-04T00:02:46.328Z,5.68
2023-03-04T00:05:15.233Z,3.70
2023-03-04T00:07:46.229Z,3.92
2023-03-04T00:10:18.530Z,4.30
2023-03-04T00:12:47.950Z,2.70
2023-03-04T00:15:16.957Z,2.08
2023-03-04T00:17:48.544Z,2.47
2023-03-04T00:20:35.137Z,3.50
2023-03-04T00:23:59.884Z,3.35
2023-03-04T00:26:41.681Z,3.35
2023-03-04T00:29:10.869Z,5.18
2023-03-04T00:31:39.878Z,4.63
2023-03-04T00:34:09.778Z,6.93
2023-03-04T00:36:38.949Z,5.22
2023-03-04T00:39:08.451Z,3.78
2023-03-04T00:41:37.345Z,3.70
2023-03-04T00:44:07.413Z,3.00
2023-03-04T00:46:36.648Z,4.88
2023-03-04T00:49:08.507Z,1.92
2023-03-04T00:51:38.110Z,3.58
2023-03-04T00:54:07.023Z,5.03
2023-03-04T00:56:35.927Z,7.28
2023-03-04T00:59:13.079Z,4.32
2023-03-04T01:01:43.033Z,3.45
2023-03-04T01:04:12.068Z,4.93
2023-03-04T01:06:41.399Z,2.38
2023-03-04T01:09:10.426Z,2.20
2023-03-04T01:11:41.177Z,3.95
2023-03-04T01:14:20.314Z,2.53
2023-03-04T01:16:50.554Z,2.58
2023-03-04T01:19:28.721Z,3.05
2023-03-04T01:21:57.692Z,2.85
2023-03-04T01:24:49.919Z,4.25
2023-03-04T01:27:32.297Z,8.23
2023-03-04T01:30:07.439Z,3.35
2023-03-04T01:32:43.152Z,5.20
2023-03-04T01:35:21.640Z,3.13
2023-03-04T01:37:50.708Z,6.40
2023-03-04T01:40:20.861Z,4.60
2023-03-04T01:42:53.880Z,2.53
2023-03-04T01:45:23.427Z,5.60
2023-03-04T01:47:56.540Z,2.88
2023-03-04T01:50:37.662Z,3.70
2023-03-04T01:53:08.359Z,2.85
2023-03-04T01:55:38.055Z,4.38
2023-03-04T01:58:11.091Z,5.35
2023-03-04T02:00:45.118Z,8.65
2023-03-04T02:03:37.689Z,5.78
2023-03-04T02:06:07.283Z,4.22
2023-03-04T02:08:39.619Z,4.32
2023-03-04T02:11:10.804Z,2.67
2023-03-04T02:13:41.116Z,5.90
2023-03-04T02:16:10.191Z,3.95
2023-03-04T02:18:39.528Z,2.72
2023-03-04T02:21:31.660Z,3.50
2023-03-04T02:24:11.911Z,3.55
2023-03-04T02:26:45.627Z,2.83
2023-03-04T02:29:18.631Z,2.90
2023-03-04T02:31:57.422Z,3.38
2023-03-04T02:34:33.002Z,5.88
2023-03-04T02:37:04.097Z,3.10
2023-03-04T02:39:37.856Z,2.22
2023-03-04T02:42:10.500Z,3.90
2023-03-04T02:44:48.831Z,4.47
2023-03-04T02:47:22.045Z,5.10
2023-03-04T02:49:57.491Z,6.28
2023-03-04T02:52:27.863Z,10.93
2023-03-04T02:54:59.470Z,3.10
2023-03-04T02:57:34.924Z,3.45
2023-03-04T03:00:04.575Z,3.97
2023-03-04T03:02:50.563Z,6.18
2023-03-04T03:05:25.030Z,2.53
2023-03-04T03:08:01.218Z,3.35
2023-03-04T03:10:34.266Z,2.53
2023-03-04T03:13:07.077Z,2.42
2023-03-04T03:15:36.464Z,3.95
2023-03-04T03:18:11.861Z,4.55
2023-03-04T03:20:50.325Z,3.25
2023-03-04T03:23:27.085Z,2.95
2023-03-04T03:25:58.453Z,2.25
2023-03-04T03:28:33.858Z,1.80
2023-03-04T03:31:08.433Z,2.60
2023-03-04T03:33:40.808Z,2.22
2023-03-04T03:36:17.184Z,2.10
2023-03-04T03:39:06.652Z,2.83
2023-03-04T03:41:41.606Z,3.05
2023-03-04T03:44:13.904Z,2.83
2023-03-04T03:46:45.785Z,4.47
2023-03-04T03:49:15.049Z,3.97
2023-03-04T03:51:55.324Z,3.10
2023-03-04T03:54:25.343Z,2.92
2023-03-04T03:56:54.481Z,5.47
2023-03-04T03:59:24.921Z,2.13
2023-03-04T04:01:58.147Z,4.18
2023-03-04T04:04:38.483Z,3.47
2023-03-04T04:07:09.835Z,5.28
2023-03-04T04:09:44.458Z,6.38
2023-03-04T04:12:21.634Z,7.43
2023-03-04T04:14:51.220Z,10.15
2023-03-04T04:17:20.271Z,8.00
2023-03-04T04:19:49.137Z,5.85
2023-03-04T04:22:22.781Z,9.50
2023-03-04T04:24:51.806Z,12.85
2023-03-04T04:27:20.717Z,13.77
2023-03-04T04:29:49.793Z,22.17
2023-03-04T04:32:21.904Z,16.95
2023-03-04T04:34:51.111Z,11.73
2023-03-04T04:37:21.373Z,9.45
2023-03-04T04:42:53.368Z,11.45
2023-03-04T04:45:22.770Z,9.27
2023-03-04T04:47:52.911Z,8.70
2023-03-04T04:50:22.187Z,10.07
2023-03-04T04:52:51.248Z,7.55
2023-03-04T04:55:20.589Z,5.32
2023-03-04T04:57:49.520Z,6.32
2023-03-04T05:00:21.583Z,8.48
2023-03-04T05:02:50.648Z,4.93
2023-03-04T05:05:19.654Z,5.82
2023-03-04T05:07:48.631Z,5.18
2023-03-04T05:10:17.745Z,4.63
2023-03-04T05:12:46.700Z,6.07
2023-03-04T05:15:25.219Z,3.55
2023-03-04T05:17:54.207Z,4.70
2023-03-04T05:20:28.811Z,4.18
2023-03-04T05:23:00.684Z,7.57
2023-03-04T05:25:30.223Z,4.82
2023-03-04T05:28:08.097Z,4.13
2023-03-04T05:30:37.265Z,4.28
2023-03-04T05:33:09.738Z,4.55
2023-03-04T05:35:43.903Z,3.63
2023-03-04T05:38:17.932Z,6.07
2023-03-04T05:40:48.249Z,3.05
2023-03-04T05:43:18.210Z,4.50
2023-03-04T05:45:52.254Z,4.47
2023-03-04T05:48:21.842Z,3.85
2023-03-04T05:51:05.212Z,7.30
2023-03-04T05:53:49.078Z,16.52
2023-03-04T05:56:21.691Z,3.88
2023-03-04T05:58:57.568Z,10.57
2023-03-04T06:01:27.649Z,17.77
2023-03-04T06:03:57.081Z,21.85
2023-03-04T06:06:28.713Z,24.08
2023-03-04T06:09:02.400Z,22.67
2023-03-04T06:11:42.774Z,8.85
2023-03-04T06:14:19.003Z,6.28
2023-03-04T06:16:48.790Z,8.95
2023-03-04T06:19:18.012Z,4.38
2023-03-04T06:25:39.733Z,4.90
2023-03-04T06:28:11.593Z,5.55
2023-03-04T06:30:55.388Z,20.25
2023-03-04T06:33:33.744Z,12.30
2023-03-04T06:36:09.066Z,12.60
2023-03-04T06:38:42.479Z,9.25
2023-03-04T06:41:13.491Z,12.25
2023-03-04T06:43:42.983Z,7.85
2023-03-04T06:46:16.501Z,6.75
2023-03-04T06:48:47.280Z,7.57
2023-03-04T06:51:30.212Z,7.70
2023-03-04T06:54:44.887Z,7.72
2023-03-04T06:57:37.816Z,6.10
2023-03-04T07:00:11.054Z,5.63
2023-03-04T07:03:11.771Z,4.55
2023-03-04T07:05:44.572Z,4.65
2023-03-04T07:08:41.804Z,5.75
2023-03-04T07:11:40.430Z,6.57
2023-03-04T07:14:13.255Z,4.80
2023-03-04T07:16:51.541Z,6.38
2023-03-04T07:19:23.904Z,2.65
2023-03-04T07:22:00.734Z,4.90
2023-03-04T07:24:51.352Z,5.43
2023-03-04T07:27:21.850Z,2.63
2023-03-04T07:29:51.138Z,3.95
2023-03-04T07:32:22.644Z,2.80
2023-03-04T07:35:09.714Z,2.60
2023-03-04T07:37:42.287Z,4.05
2023-03-04T07:40:13.529Z,2.65
2023-03-04T07:43:07.707Z,3.85
2023-03-04T07:45:40.539Z,4.30
2023-03-04T07:48:10.677Z,3.30
2023-03-04T07:50:39.819Z,3.60
2023-03-04T07:53:13.364Z,3.42
2023-03-04T07:55:49.349Z,2.22
2023-03-04T07:58:23.576Z,6.22
2023-03-04T08:00:52.842Z,2.90
2023-03-04T08:03:22.330Z,3.30
2023-03-04T08:05:55.841Z,3.72
2023-03-04T08:08:29.684Z,4.07
2023-03-04T08:10:58.915Z,2.78
2023-03-04T08:13:41.157Z,3.58
2023-03-04T08:16:20.981Z,3.35
2023-03-04T08:18:54.846Z,2.97
2023-03-04T08:21:28.085Z,4.30
2023-03-04T08:24:05.057Z,2.47
2023-03-04T08:29:22.660Z,3.15
2023-03-04T08:31:53.550Z,2.03
2023-03-04T08:34:25.822Z,3.78
2023-03-04T08:36:55.206Z,2.80
2023-03-04T08:39:24.387Z,2.63
2023-03-04T08:41:56.333Z,3.63
2023-03-04T08:44:26.784Z,4.47
2023-03-04T08:46:56.497Z,3.63
2023-03-04T08:49:28.273Z,3.10
2023-03-04T08:51:57.378Z,1.65
2023-03-04T08:54:26.308Z,2.38
2023-03-04T08:56:55.592Z,2.47
2023-03-04T08:59:27.540Z,2.92
2023-03-04T09:01:56.625Z,2.70
2023-03-04T09:04:32.980Z,2.45
2023-03-04T09:07:09.116Z,2.08
2023-03-04T09:09:41.573Z,1.92
2023-03-04T09:12:13.495Z,2.47
2023-03-04T09:14:45.594Z,2.92
2023-03-04T09:17:15.947Z,3.67
2023-03-04T09:19:59.285Z,1.90
2023-03-04T09:22:36.532Z,3.65
2023-03-04T09:26:10.673Z,4.13
2023-03-04T09:29:25.697Z,4.15
2023-03-04T09:33:02.821Z,1.67
2023-03-04T09:36:29.385Z,2.38
2023-03-04T09:40:26.273Z,2.22
2023-03-04T09:43:55.526Z,4.25
2023-03-04T09:47:03.725Z,2.85
2023-03-04T09:50:15.704Z,2.00
2023-03-04T09:53:03.857Z,2.47
2023-03-04T09:55:48.602Z,3.65
2023-03-04T09:58:50.852Z,2.90
2023-03-04T10:01:28.383Z,3.13
2023-03-04T10:04:05.517Z,6.57
2023-03-04T10:06:37.785Z,4.32
2023-03-04T15:01:46.923Z,2.85
2023-03-04T15:34:39.148Z,3.10
2023-03-04T15:37:11.562Z,4.05
2023-03-04T15:39:40.610Z,4.10
2023-03-04T15:42:14.250Z,3.30
2023-03-04T15:44:43.514Z,2.38
2023-03-04T15:47:16.335Z,3.03
2023-03-04T15:49:48.192Z,5.50
2023-03-04T15:52:23.621Z,3.25
2023-03-04T15:54:52.856Z,2.55
2023-03-04T15:57:27.077Z,6.00
2023-03-04T15:59:56.029Z,3.00
2023-03-04T16:02:28.426Z,3.13
2023-03-04T16:04:57.497Z,2.88
2023-03-04T16:07:30.234Z,1.98
2023-03-04T16:10:08.536Z,6.43
2023-03-04T16:12:37.527Z,3.20
2023-03-04T16:15:22.581Z,2.95
2023-03-04T16:17:51.724Z,3.28
2023-03-04T16:20:27.382Z,2.10
2023-03-04T16:22:59.514Z,3.53
2023-03-04T16:25:30.339Z,5.25
2023-03-04T16:28:03.430Z,2.17
2023-03-04T16:30:38.211Z,4.53
2023-03-04T16:33:08.901Z,2.75
2023-03-04T16:35:39.671Z,6.22
2023-03-04T16:50:54.157Z,2.65
2023-03-04T16:53:41.400Z,3.22
2023-03-04T16:56:16.376Z,2.00
2023-03-04T16:58:45.861Z,3.65
2023-03-04T17:04:14.075Z,2.80
2023-03-04T17:06:45.685Z,2.05
2023-03-04T17:09:17.412Z,3.13
2023-03-04T17:11:47.162Z,2.08
2023-03-04T17:14:26.665Z,1.58
2023-03-04T17:18:03.872Z,1.23
2023-03-04T17:20:53.993Z,4.72
2023-03-04T17:23:48.489Z,2.65
2023-03-04T17:26:21.802Z,1.88
2023-03-04T17:28:55.307Z,1.30
2023-03-04T17:31:24.418Z,2.10
2023-03-04T17:33:53.342Z,3.67
2023-03-04T17:36:22.763Z,4.35
2023-03-04T17:38:52.971Z,1.27
2023-03-04T17:41:39.651Z,1.58
2023-03-04T17:44:21.629Z,2.05
2023-03-04T17:46:50.853Z,1.75
2023-03-04T17:49:23.385Z,3.00
2023-03-04T17:51:53.772Z,4.30
2023-03-04T17:54:22.839Z,2.05
2023-03-04T17:56:51.752Z,2.80
2023-03-04T17:59:20.880Z,2.85
2023-03-04T18:01:53.967Z,1.98
2023-03-04T18:04:23.610Z,2.13
2023-03-04T18:06:52.659Z,2.22
2023-03-04T18:09:21.700Z,5.07
2023-03-04T18:11:50.802Z,2.45
2023-03-04T18:14:19.834Z,1.42
2023-03-04T18:16:51.755Z,1.70
2023-03-04T18:19:20.716Z,1.73
2023-03-04T18:21:49.633Z,4.95
2023-03-04T18:24:18.546Z,3.03
2023-03-04T18:26:47.796Z,2.65
2023-03-04T18:29:16.960Z,2.40
2023-03-04T18:35:25.174Z,2.33
2023-03-04T18:38:10.358Z,1.80
2023-03-04T18:40:45.793Z,3.08
2023-03-04T18:43:19.591Z,1.73
2023-03-04T18:45:49.303Z,2.47
2023-03-04T18:48:28.439Z,4.85
2023-03-04T19:00:56.341Z,2.03
2023-03-04T19:03:33.869Z,3.35
2023-03-04T19:11:41.774Z,2.72
2023-03-04T19:14:52.877Z,2.05
2023-03-04T19:18:08.001Z,2.47
2023-03-04T19:24:23.907Z,2.65
2023-03-04T19:27:52.837Z,3.40
2023-03-04T19:30:13.392Z,3.88
2023-03-04T19:32:53.987Z,4.18
2023-03-04T19:35:23.509Z,5.15
2023-03-04T19:37:52.336Z,3.75
2023-03-04T19:40:21.993Z,6.18
2023-03-04T19:42:51.011Z,3.85
2023-03-04T19:45:21.400Z,4.47
2023-03-04T19:47:50.362Z,3.83
2023-03-04T19:50:20.022Z,4.43
2023-03-04T19:52:49.030Z,4.53
2023-03-04T19:55:17.948Z,5.40
2023-03-04T19:57:46.857Z,5.75
2023-03-04T20:00:22.079Z,5.18
2023-03-04T20:02:56.828Z,5.28
2023-03-04T20:05:30.386Z,4.97
2023-03-04T20:07:59.595Z,6.88
2023-03-04T20:10:37.572Z,5.63
2023-03-04T20:13:28.066Z,5.93
2023-03-04T20:16:03.460Z,4.80
2023-03-04T20:18:33.298Z,5.97
2023-03-04T20:21:10.466Z,4.97
2023-03-04T20:23:42.058Z,5.10
2023-03-04T20:26:14.550Z,7.50
2023-03-04T20:28:54.162Z,4.57
2023-03-04T20:31:27.361Z,3.85
2023-03-04T20:34:00.743Z,6.78
2023-03-04T20:36:32.021Z,4.32
2023-03-04T20:39:02.851Z,5.25
2023-03-04T20:41:35.788Z,5.80
2023-03-04T20:44:07.592Z,3.83
2023-03-04T20:46:47.256Z,4.90
2023-03-04T20:49:24.401Z,5.82
2023-03-04T20:52:00.299Z,5.90
2023-03-04T20:54:31.369Z,6.43
2023-03-04T20:57:02.066Z,4.85
2023-03-04T20:59:31.165Z,9.27
2023-03-04T21:02:03.627Z,6.05
2023-03-04T21:04:40.166Z,5.85
2023-03-04T21:09:37.892Z,4.85
2023-03-04T21:12:10.935Z,6.95
2023-03-04T21:14:41.698Z,9.15
2023-03-04T21:17:11.245Z,4.50
2023-03-04T21:19:45.489Z,6.68
2023-03-04T21:22:17.643Z,8.10
2023-03-04T21:24:47.719Z,5.22
2023-03-04T21:27:17.668Z,9.73
2023-03-04T21:29:46.760Z,5.25
2023-03-04T21:32:25.379Z,4.38
2023-03-04T21:34:55.954Z,5.47
2023-03-04T21:37:26.541Z,5.05
2023-03-04T21:39:56.834Z,6.38
2023-03-04T21:42:25.820Z,4.47
2023-03-04T21:44:54.844Z,5.18
2023-03-04T21:50:09.187Z,4.43
2023-03-04T21:52:38.270Z,4.05
2023-03-04T21:55:07.474Z,5.22
2023-03-04T21:57:36.458Z,6.85
2023-03-04T22:00:06.734Z,4.65
2023-03-04T22:02:41.141Z,6.20
2023-03-04T22:05:15.323Z,4.45
2023-03-04T22:07:59.660Z,5.93
2023-03-04T22:10:28.659Z,4.45
2023-03-04T22:12:57.670Z,2.05
2023-03-04T22:15:30.311Z,4.20
2023-03-04T22:18:08.098Z,7.50
2023-03-04T22:20:46.140Z,5.35
2023-03-04T22:23:21.140Z,6.88
2023-03-04T22:25:52.933Z,4.18
2023-03-04T22:28:21.922Z,5.03
2023-03-04T22:30:50.908Z,5.10
2023-03-04T22:33:21.499Z,4.82
2023-03-04T22:35:54.978Z,6.25
2023-03-04T22:38:26.821Z,6.10
2023-03-04T22:40:55.805Z,7.28
2023-03-04T22:43:25.026Z,4.60
2023-03-04T22:45:55.091Z,6.18
2023-03-04T22:48:24.236Z,6.60
2023-03-04T22:50:53.320Z,4.70
2023-03-04T22:53:26.107Z,5.07
2023-03-04T22:56:01.322Z,4.60
2023-03-04T22:58:39.868Z,4.90
2023-03-04T23:01:29.115Z,5.82
2023-03-04T23:03:58.246Z,3.95
2023-03-04T23:06:32.281Z,2.75
2023-03-04T23:09:05.257Z,5.15
2023-03-04T23:11:39.699Z,4.47
2023-03-04T23:14:09.939Z,4.85
2023-03-04T23:16:44.043Z,6.13
2023-03-04T23:19:18.503Z,5.32
2023-03-04T23:21:47.526Z,3.63
2023-03-04T23:24:41.841Z,3.95
2023-03-04T23:27:28.795Z,9.50
2023-03-04T23:30:00.978Z,3.30
2023-03-04T23:32:32.267Z,3.78
2023-03-04T23:35:01.351Z,3.42
2023-03-04T23:37:30.417Z,4.15
2023-03-04T23:39:59.540Z,2.75
2023-03-04T23:42:28.549Z,6.05
2023-03-04T23:44:57.754Z,5.25
2023-03-04T23:47:28.791Z,4.45
2023-03-04T23:49:58.349Z,7.93
2023-03-04T23:52:27.963Z,5.82
2023-03-04T23:54:56.912Z,5.50
2023-03-04T23:57:27.939Z,4.05
2023-03-04T23:59:56.948Z,4.03
